createdAt,value
2023-03-21T00:00:23.690Z,5
2023-03-21T00:01:22.885Z,5.199
2023-03-21T00:02:22.708Z,4.900
2023-03-21T00:03:22.653Z,5.099
2023-03-21T00:04:22.239Z,5
2023-03-21T00:05:22.796Z,4.800
2023-03-21T00:06:21.877Z,4.699
2023-03-21T00:07:22.268Z,4.300
2023-03-21T00:08:21.966Z,4.5
2023-03-21T00:10:37.132Z,4
2023-03-21T00:11:21.803Z,5
2023-03-21T00:12:22.687Z,5.199
2023-03-21T00:13:22.280Z,4.699
2023-03-21T00:14:22.217Z,4.900
2023-03-21T00:15:24.959Z,5.099
2023-03-21T00:16:30.531Z,4.900
2023-03-21T00:18:22.474Z,5.400
2023-03-21T00:19:22.515Z,4.5
2023-03-21T00:20:22.661Z,4.300
2023-03-21T00:21:46.553Z,4.800
2023-03-21T00:24:20.305Z,4.599
2023-03-21T00:27:43.076Z,5.199
2023-03-21T00:29:21.975Z,4.800
2023-03-21T00:30:23.283Z,4.199
2023-03-21T00:31:22.014Z,4.5
2023-03-21T00:32:22.671Z,4.800
2023-03-21T00:33:22.987Z,4.300
2023-03-21T00:34:37.077Z,5
2023-03-21T00:35:53.605Z,5.099
2023-03-21T00:36:30.778Z,4.599
2023-03-21T00:37:22.401Z,4.699
2023-03-21T00:38:22.235Z,5.099
2023-03-21T00:39:22.426Z,5
2023-03-21T00:40:27.932Z,4.800
2023-03-21T00:41:39.180Z,4.5
2023-03-21T00:42:22.697Z,4.300
2023-03-21T00:43:21.874Z,4.5
2023-03-21T00:44:22.433Z,4.300
2023-03-21T00:45:22.981Z,4.199
2023-03-21T00:46:25.129Z,4.300
2023-03-21T00:47:24.123Z,4.400
2023-03-21T00:48:22.566Z,4.099
2023-03-21T00:49:22.332Z,4.5
2023-03-21T00:50:22.214Z,4.900
2023-03-21T00:51:21.783Z,4.599
2023-03-21T00:52:34.403Z,3.900
2023-03-21T00:53:22.571Z,4.300
2023-03-21T00:54:22.547Z,4.400
2023-03-21T00:55:22.568Z,4.199
2023-03-21T00:57:29.275Z,4.300
2023-03-21T00:59:22.636Z,4.599
2023-03-21T01:00:24.255Z,4.400
2023-03-21T01:01:25.472Z,4.300
2023-03-21T01:02:22.262Z,4.5
2023-03-21T01:03:25.341Z,4.199
2023-03-21T01:04:22.250Z,4.5
2023-03-21T01:05:22.385Z,4.300
2023-03-21T01:06:22.116Z,4.099
2023-03-21T01:08:28.051Z,4.199
2023-03-21T01:10:22.575Z,4
2023-03-21T01:11:22.017Z,4.699
2023-03-21T01:12:22.667Z,3.900
2023-03-21T01:13:22.335Z,4.300
2023-03-21T01:14:23.692Z,4.099
2023-03-21T01:15:22.470Z,3.700
2023-03-21T01:16:22.838Z,3.5
2023-03-21T01:17:22.314Z,4
2023-03-21T01:18:22.237Z,3.700
2023-03-21T01:20:22.795Z,3.900
2023-03-21T01:21:22.285Z,3.700
2023-03-21T01:22:22.008Z,4
2023-03-21T01:24:22.296Z,4.099
2023-03-21T01:25:23.118Z,4.300
2023-03-21T01:26:22.146Z,4.199
2023-03-21T01:27:22.854Z,4
2023-03-21T01:28:22.429Z,3.799
2023-03-21T01:29:22.400Z,4
2023-03-21T01:30:24.109Z,4.099
2023-03-21T01:31:21.927Z,4.199
2023-03-21T01:33:21.817Z,3.799
2023-03-21T01:34:22.307Z,3.900
2023-03-21T01:35:21.884Z,4.199
2023-03-21T01:36:23.485Z,3.799
2023-03-21T01:37:22.458Z,4.300
2023-03-21T01:38:22.223Z,4
2023-03-21T01:40:22.564Z,4.300
2023-03-21T01:41:26.188Z,4.199
2023-03-21T01:42:22.933Z,4.400
2023-03-21T01:43:22.129Z,4.199
2023-03-21T01:44:22.369Z,4.5
2023-03-21T01:45:22.463Z,4.199
2023-03-21T01:46:22.409Z,3.599
2023-03-21T01:47:22.447Z,4.099
2023-03-21T01:48:21.939Z,3.900
2023-03-21T01:49:22.376Z,3.599
2023-03-21T01:50:22.435Z,4.099
2023-03-21T01:52:35.424Z,4
2023-03-21T01:53:22.010Z,3.700
2023-03-21T01:54:22.343Z,3.900
2023-03-21T01:55:22.160Z,3.799
2023-03-21T01:56:22.187Z,4
2023-03-21T01:58:21.854Z,3.5
2023-03-21T01:59:22.056Z,3.799
2023-03-21T02:00:23.552Z,4
2023-03-21T02:01:22.659Z,4.300
2023-03-21T02:02:22.655Z,4.099
2023-03-21T02:03:34.998Z,4.699
2023-03-21T02:04:21.908Z,4.199
2023-03-21T02:05:22.824Z,4.300
2023-03-21T02:06:21.985Z,4.599
2023-03-21T02:08:25.918Z,4.5
2023-03-21T02:09:21.866Z,4.199
2023-03-21T02:10:22.416Z,4.599
2023-03-21T02:11:22.124Z,4
2023-03-21T02:12:22.497Z,4.400
2023-03-21T02:13:21.936Z,4.300
2023-03-21T02:14:29.016Z,4.800
2023-03-21T02:15:23.140Z,4.300
2023-03-21T02:16:22.258Z,4.800
2023-03-21T02:17:22.631Z,4.699
2023-03-21T02:18:22.265Z,4.599
2023-03-21T02:19:29.604Z,4.300
2023-03-21T02:20:22.753Z,4.699
2023-03-21T02:23:22.015Z,4.800
2023-03-21T02:24:21.946Z,4.400
2023-03-21T02:25:22.580Z,4.699
2023-03-21T02:26:24.785Z,4.5
2023-03-21T02:27:22.589Z,4.099
2023-03-21T02:28:22.330Z,4.400
2023-03-21T02:29:22.706Z,4.199
2023-03-21T02:30:30.365Z,4.599
2023-03-21T02:31:22.192Z,4.5
2023-03-21T02:33:22.393Z,4.699
2023-03-21T02:34:22.074Z,4.599
2023-03-21T02:36:22.492Z,4.400
2023-03-21T02:38:21.074Z,4.699
2023-03-21T02:39:22.826Z,4.199
2023-03-21T02:40:22.934Z,4.300
2023-03-21T02:41:22.371Z,4.699
2023-03-21T02:42:22.733Z,4.300
2023-03-21T02:43:23.748Z,4.199
2023-03-21T02:44:22.665Z,4.300
2023-03-21T02:45:22.546Z,4.900
2023-03-21T02:46:24.367Z,4.400
2023-03-21T02:47:22.985Z,4.300
2023-03-21T02:48:29.382Z,3.900
2023-03-21T02:49:22.500Z,4.300
2023-03-21T02:50:22.568Z,4.400
2023-03-21T02:51:22.810Z,3.900
2023-03-21T02:52:37.331Z,4.199
2023-03-21T02:54:32.564Z,4.099
2023-03-21T02:55:21.933Z,4.400
2023-03-21T02:59:23.097Z,4
2023-03-21T03:01:21.973Z,4.400
2023-03-21T03:02:22.438Z,4
2023-03-21T03:03:33.313Z,4.099
2023-03-21T03:04:22.761Z,3.799
2023-03-21T03:05:22.354Z,4.199
2023-03-21T03:06:22.181Z,4.099
2023-03-21T03:07:21.756Z,4.199
2023-03-21T03:09:21.934Z,4.099
2023-03-21T03:10:23.024Z,4.199
2023-03-21T03:11:21.945Z,4.099
2023-03-21T03:12:22.518Z,4.5
2023-03-21T03:13:21.952Z,4.400
2023-03-21T03:15:22.297Z,4.099
2023-03-21T03:16:22.015Z,4
2023-03-21T03:17:22.219Z,4.199
2023-03-21T03:18:22.345Z,4.300
2023-03-21T03:19:22.545Z,4.699
2023-03-21T03:20:22.123Z,4.599
2023-03-21T03:21:21.868Z,4.800
2023-03-21T03:22:21.897Z,4.5
2023-03-21T03:23:21.745Z,4.599
2023-03-21T03:24:22.058Z,4.5
2023-03-21T03:25:35.838Z,4.800
2023-03-21T03:28:23.001Z,4.5
2023-03-21T03:29:22.033Z,4.800
2023-03-21T03:30:39.292Z,5
2023-03-21T03:31:22.494Z,5.199
2023-03-21T03:32:30.251Z,4.599
2023-03-21T03:33:22.511Z,4.800
2023-03-21T03:34:21.690Z,4.300
2023-03-21T03:36:31.604Z,4.599
2023-03-21T03:37:21.759Z,4.699
2023-03-21T03:38:22.111Z,4.400
2023-03-21T03:39:22.214Z,4.800
2023-03-21T03:40:22.339Z,4.400
2023-03-21T03:42:28.531Z,4.599
2023-03-21T03:43:22.248Z,4.5
2023-03-21T03:44:22.592Z,4.699
2023-03-21T03:45:22.122Z,4
2023-03-21T03:46:22.260Z,4.599
2023-03-21T03:47:32.408Z,4.400
2023-03-21T03:48:22.101Z,4.800
2023-03-21T03:49:22.435Z,4.5
2023-03-21T03:50:22.111Z,4.699
2023-03-21T03:51:21.949Z,4.599
2023-03-21T03:52:22.320Z,4.400
2023-03-21T03:53:21.768Z,4.5
2023-03-21T03:54:21.919Z,4.599
2023-03-21T03:55:22.222Z,4.800
2023-03-21T03:56:22.395Z,4.5
2023-03-21T03:57:21.871Z,5
2023-03-21T03:58:24.204Z,4.400
2023-03-21T03:59:21.960Z,4.5
2023-03-21T04:00:23.554Z,4.300
2023-03-21T04:01:22.576Z,4.599
2023-03-21T04:02:22.263Z,4.5
2023-03-21T04:03:21.963Z,4.400
2023-03-21T04:04:22.582Z,4.5
2023-03-21T04:05:22.831Z,4.599
2023-03-21T04:06:22.346Z,4.5
2023-03-21T04:08:22.168Z,4.699
2023-03-21T04:09:28.957Z,4.900
2023-03-21T04:10:22.877Z,4.699
2023-03-21T04:11:22.113Z,4.400
2023-03-21T04:13:22.210Z,4.5
2023-03-21T04:15:22.373Z,4.699
2023-03-21T04:16:21.982Z,4.599
2023-03-21T04:17:22.085Z,5
2023-03-21T04:18:22.467Z,4.599
2023-03-21T04:19:21.930Z,4.699
2023-03-21T04:20:34.158Z,4.800
2023-03-21T04:21:22.069Z,5.199
2023-03-21T04:22:22.548Z,5
2023-03-21T04:23:22.202Z,5.099
2023-03-21T04:24:21.909Z,4.900
2023-03-21T04:25:32.672Z,5.099
2023-03-21T04:26:22.559Z,4.5
2023-03-21T04:27:22.332Z,4.699
2023-03-21T04:28:22.140Z,4.900
2023-03-21T04:29:22.573Z,4.599
2023-03-21T04:30:23.014Z,4.900
2023-03-21T04:31:26.018Z,4.599
2023-03-21T04:33:22.185Z,4.699
2023-03-21T04:34:22.361Z,4.599
2023-03-21T04:35:22.418Z,4.699
2023-03-21T04:37:22.734Z,4.5
2023-03-21T04:38:22.135Z,5.099
2023-03-21T04:39:21.723Z,5.300
2023-03-21T04:40:22.379Z,4.900
2023-03-21T04:41:22.361Z,4.800
2023-03-21T04:42:22.749Z,5.199
2023-03-21T04:43:22.304Z,4.900
2023-03-21T04:44:22.173Z,4.800
2023-03-21T04:45:23.027Z,4.900
2023-03-21T04:46:22.285Z,4.699
2023-03-21T04:47:22.321Z,5.199
2023-03-21T04:48:22.132Z,4.900
2023-03-21T04:49:22.605Z,5
2023-03-21T04:52:24.319Z,4.800
2023-03-21T04:53:22.114Z,4.699
2023-03-21T04:54:21.834Z,4.599
2023-03-21T04:55:22.520Z,4.400
2023-03-21T04:56:22.426Z,4.800
2023-03-21T04:57:21.984Z,5.300
2023-03-21T04:58:22.232Z,5.199
2023-03-21T04:59:21.935Z,4.900
2023-03-21T05:00:23.632Z,4.699
2023-03-21T05:01:22.421Z,4.599
2023-03-21T05:03:21.777Z,5.199
2023-03-21T05:04:22.277Z,5.400
2023-03-21T05:05:22.023Z,5.199
2023-03-21T05:06:21.819Z,5.099
2023-03-21T05:07:22.082Z,4.699
2023-03-21T05:08:22.318Z,5
2023-03-21T05:09:22.410Z,5.599
2023-03-21T05:10:22.488Z,5
2023-03-21T05:11:22.606Z,4.5
2023-03-21T05:12:22.300Z,5.099
2023-03-21T05:13:21.978Z,4.800
2023-03-21T05:14:22.317Z,5
2023-03-21T05:15:22.258Z,4.800
2023-03-21T05:17:22.104Z,4.699
2023-03-21T05:19:22.240Z,5.199
2023-03-21T05:20:22.804Z,5.5
2023-03-21T05:21:22.581Z,5.199
2023-03-21T05:22:21.940Z,5.099
2023-03-21T05:23:22.030Z,5.400
2023-03-21T05:24:21.796Z,5
2023-03-21T05:25:22.789Z,4.800
2023-03-21T05:26:22.126Z,4.599
2023-03-21T05:27:22.049Z,4.900
2023-03-21T05:28:21.737Z,5.199
2023-03-21T05:29:22.111Z,4.800
2023-03-21T05:30:23.072Z,5.099
2023-03-21T05:33:21.869Z,4.599
2023-03-21T05:34:22.336Z,5.099
2023-03-21T05:35:22.580Z,4.400
2023-03-21T05:36:21.988Z,4.599
2023-03-21T05:37:22.793Z,4.300
2023-03-21T05:39:22.456Z,4.800
2023-03-21T05:40:22.707Z,4.5
2023-03-21T05:41:23.191Z,4.400
2023-03-21T05:42:22.266Z,4.900
2023-03-21T05:43:22.230Z,4.800
2023-03-21T05:44:21.761Z,4.900
2023-03-21T05:45:22.205Z,5
2023-03-21T05:46:22.004Z,4.800
2023-03-21T05:47:27.296Z,5
2023-03-21T05:48:22.401Z,5.199
2023-03-21T05:49:22.092Z,4.800
2023-03-21T05:50:22.909Z,4.900
2023-03-21T05:52:22.398Z,5
2023-03-21T05:53:23.210Z,5.099
2023-03-21T05:54:22.053Z,5.400
2023-03-21T05:55:23.121Z,5.300
2023-03-21T05:56:22.276Z,5
2023-03-21T05:57:21.729Z,5.099
2023-03-21T05:59:22.330Z,4.900
2023-03-21T06:00:23.048Z,5.199
2023-03-21T06:02:22.458Z,5
2023-03-21T06:03:22.757Z,5.400
2023-03-21T06:04:22.111Z,5.599
2023-03-21T06:05:22.271Z,5.199
2023-03-21T06:06:22.776Z,5.099
2023-03-21T06:07:23.001Z,5
2023-03-21T06:08:22.497Z,5.300
2023-03-21T06:09:22.488Z,4.900
2023-03-21T06:12:22.997Z,5.400
2023-03-21T06:13:22.358Z,5.099
2023-03-21T06:14:22.356Z,5.199
2023-03-21T06:15:23.369Z,5.599
2023-03-21T06:16:22.627Z,5.300
2023-03-21T06:17:22.357Z,5.199
2023-03-21T06:19:22.507Z,5.599
2023-03-21T06:20:22.695Z,4.800
2023-03-21T06:21:22.466Z,5.400
2023-03-21T06:24:22.141Z,5.699
2023-03-21T06:25:22.079Z,5.5
2023-03-21T06:27:21.744Z,5.599
2023-03-21T06:29:22.622Z,5.199
2023-03-21T06:30:22.922Z,5.800
2023-03-21T06:31:22.833Z,5.5
2023-03-21T06:32:22.632Z,6.099
2023-03-21T06:33:44.131Z,5.400
2023-03-21T06:34:22.372Z,5.5
2023-03-21T06:35:22.519Z,5.800
2023-03-21T06:36:21.666Z,5.5
2023-03-21T06:37:22.755Z,5.599
2023-03-21T06:38:21.922Z,5.300
2023-03-21T06:39:22.352Z,5.400
2023-03-21T06:40:22.217Z,5.199
2023-03-21T06:42:22.452Z,5
2023-03-21T06:44:21.944Z,5.300
2023-03-21T06:45:22.102Z,5.5
2023-03-21T06:46:23.042Z,5.400
2023-03-21T06:47:22.520Z,5.300
2023-03-21T06:48:22.326Z,5
2023-03-21T06:49:22.060Z,4.800
2023-03-21T06:50:22.640Z,5.5
2023-03-21T06:51:22.886Z,5.199
2023-03-21T06:52:22.333Z,5.099
2023-03-21T06:53:22.626Z,5.300
2023-03-21T06:54:22.961Z,5.099
2023-03-21T06:55:22.337Z,5.199
2023-03-21T06:56:22.194Z,5.599
2023-03-21T06:57:22.308Z,5.300
2023-03-21T06:58:22.201Z,5.199
2023-03-21T06:59:22.496Z,5.599
2023-03-21T07:00:23.647Z,5.199
2023-03-21T07:01:22.497Z,6.099
2023-03-21T07:02:22.823Z,6.300
2023-03-21T07:03:22.453Z,5.900
2023-03-21T07:05:22.364Z,6
2023-03-21T07:06:21.804Z,6.5
2023-03-21T07:08:21.965Z,6.599
2023-03-21T07:09:22.571Z,6.400
2023-03-21T07:10:22.363Z,6.5
2023-03-21T07:11:22.471Z,6.300
2023-03-21T07:12:22.203Z,6.099
2023-03-21T07:14:22.597Z,6.5
2023-03-21T07:15:23.231Z,6
2023-03-21T07:16:22.089Z,7.099
2023-03-21T07:17:22.551Z,6.800
2023-03-21T07:18:22.724Z,6.5
2023-03-21T07:19:22.927Z,6.900
2023-03-21T07:20:23.693Z,6.5
2023-03-21T07:21:22.504Z,6.599
2023-03-21T07:22:22.292Z,6.099
2023-03-21T07:23:22.861Z,5.900
2023-03-21T07:24:25.169Z,6
2023-03-21T07:25:23.041Z,6.099
2023-03-21T07:26:22.350Z,6.300
2023-03-21T07:27:22.258Z,6.099
2023-03-21T07:28:22.884Z,5.900
2023-03-21T07:29:22.385Z,5.800
2023-03-21T07:30:22.973Z,5.599
2023-03-21T07:31:22.892Z,6.099
2023-03-21T07:32:23.311Z,5.5
2023-03-21T07:33:23.662Z,5
2023-03-21T07:34:23.808Z,5.099
2023-03-21T07:35:22.948Z,5.599
2023-03-21T07:36:23.374Z,4.900
2023-03-21T07:37:23.024Z,5.400
2023-03-21T07:39:23.262Z,5.5
2023-03-21T07:40:22.684Z,6.400
2023-03-21T07:41:23.108Z,5.300
2023-03-21T07:42:22.661Z,5.800
2023-03-21T07:44:22.802Z,6.099
2023-03-21T07:45:23.697Z,5.5
2023-03-21T07:46:23.240Z,5.599
2023-03-21T07:47:22.863Z,6
2023-03-21T07:48:22.812Z,5.699
2023-03-21T07:49:22.864Z,5.300
2023-03-21T07:50:23.584Z,5.699
2023-03-21T07:51:23.400Z,6.400
2023-03-21T07:52:23.306Z,6.199
2023-03-21T07:53:23.066Z,5.5
2023-03-21T07:54:22.936Z,5.800
2023-03-21T07:55:23.257Z,5.599
2023-03-21T07:56:22.754Z,5.300
2023-03-21T07:57:23.934Z,5.800
2023-03-21T07:58:23.432Z,6
2023-03-21T07:59:22.919Z,5.800
2023-03-21T08:00:24.516Z,5.900
2023-03-21T08:01:23.382Z,6.5
2023-03-21T08:02:22.885Z,6.400
2023-03-21T08:03:24.006Z,5.800
2023-03-21T08:05:24.236Z,6.099
2023-03-21T08:06:23.274Z,5.900
2023-03-21T08:07:23.765Z,6
2023-03-21T08:08:22.947Z,5.599
2023-03-21T08:09:24.107Z,6.400
2023-03-21T08:10:24.159Z,5.900
2023-03-21T08:11:23.318Z,6.5
2023-03-21T08:12:23.663Z,6.599
2023-03-21T08:14:28.763Z,7
2023-03-21T08:15:23.487Z,6
2023-03-21T08:16:24.012Z,6.5
2023-03-21T08:17:23.962Z,6.599
2023-03-21T08:18:28.940Z,6.900
2023-03-21T08:19:24.518Z,6.5
2023-03-21T08:20:24.436Z,6.400
2023-03-21T08:21:23.870Z,6.099
2023-03-21T08:22:23.644Z,6.599
2023-03-21T08:23:23.103Z,6.5
2023-03-21T08:24:23.274Z,7
2023-03-21T08:25:23.344Z,6.699
2023-03-21T08:26:23.156Z,6.199
2023-03-21T08:27:23.520Z,6.300
2023-03-21T08:28:23.493Z,5.900
2023-03-21T08:30:31.941Z,7.099
2023-03-21T08:31:23.710Z,6.199
2023-03-21T08:32:23.483Z,6.599
2023-03-21T08:33:23.441Z,6.800
2023-03-21T08:34:23.415Z,6.5
2023-03-21T08:35:23.334Z,6.300
2023-03-21T08:36:24.427Z,6.199
2023-03-21T08:38:23.685Z,6.099
2023-03-21T08:39:24.366Z,6.400
2023-03-21T08:40:23.808Z,5.900
2023-03-21T08:41:23.174Z,5.800
2023-03-21T08:42:23.756Z,6.199
2023-03-21T08:43:23.810Z,5.900
2023-03-21T08:44:23.393Z,5.800
2023-03-21T08:45:23.578Z,5.5
2023-03-21T08:46:23.313Z,6.099
2023-03-21T08:47:22.595Z,5.900
2023-03-21T08:48:22.588Z,6.099
2023-03-21T08:51:22.903Z,5.599
2023-03-21T08:53:23.686Z,5.699
2023-03-21T08:54:22.985Z,5.5
2023-03-21T08:56:23.891Z,5.199
2023-03-21T08:57:23.123Z,5.400
2023-03-21T08:59:23.532Z,5.5
2023-03-21T09:02:22.820Z,5.599
2023-03-21T09:03:23.147Z,5.800
2023-03-21T09:04:23.222Z,5.400
2023-03-21T09:05:23.200Z,4.900
2023-03-21T09:06:22.905Z,5.099
2023-03-21T09:07:23.178Z,5.199
2023-03-21T09:08:23.263Z,5.599
2023-03-21T09:10:23.922Z,5.900
2023-03-21T09:11:22.858Z,5.599
2023-03-21T09:13:23.298Z,5.900
2023-03-21T09:15:28.037Z,5.199
2023-03-21T09:16:23.625Z,6
2023-03-21T09:17:23.284Z,5.900
2023-03-21T09:18:23.218Z,5.800
2023-03-21T09:19:23.863Z,5.400
2023-03-21T09:20:23.450Z,5.699
2023-03-21T09:21:23.409Z,5.599
2023-03-21T09:22:23.845Z,6.599
2023-03-21T09:23:23.957Z,6
2023-03-21T09:24:23.890Z,5.699
2023-03-21T09:25:23.548Z,5.599
2023-03-21T09:27:23.572Z,6.300
2023-03-21T09:28:23.485Z,5.699
2023-03-21T09:29:23.306Z,6.300
2023-03-21T09:30:25.985Z,6.400
2023-03-21T09:31:23.655Z,5.699
2023-03-21T09:32:23.013Z,6.099
2023-03-21T09:33:23.058Z,6.199
2023-03-21T09:34:23.195Z,6.099
2023-03-21T09:35:23.154Z,6.199
2023-03-21T09:37:23.269Z,6.800
2023-03-21T09:38:23.657Z,6.400
2023-03-21T09:39:22.718Z,6.5
2023-03-21T09:40:23.049Z,6.699
2023-03-21T09:41:23.815Z,6.599
2023-03-21T09:42:22.810Z,6.699
2023-03-21T09:44:23.504Z,7
2023-03-21T09:45:23.120Z,6.800
2023-03-21T09:46:24.092Z,6.5
2023-03-21T09:48:23.575Z,6.199
2023-03-21T09:49:23.603Z,5.699
2023-03-21T09:50:24.118Z,5.900
2023-03-21T09:51:23.378Z,6.099
2023-03-21T09:52:23.719Z,6.599
2023-03-21T09:53:23.269Z,6.5
2023-03-21T09:54:23.425Z,6.300
2023-03-21T09:56:23.552Z,6.199
2023-03-21T09:57:23.043Z,6.599
2023-03-21T09:58:23.220Z,6
2023-03-21T09:59:23.893Z,6.400
2023-03-21T10:01:24.179Z,6.5
2023-03-21T10:02:23.777Z,6.199
2023-03-21T10:03:23.945Z,6.300
2023-03-21T10:04:23.557Z,6.099
2023-03-21T10:05:23.795Z,6.5
2023-03-21T10:06:23.964Z,6.199
2023-03-21T10:07:23.515Z,5.900
2023-03-21T10:08:23.307Z,5.400
2023-03-21T10:09:24.073Z,5.699
2023-03-21T10:10:24.240Z,5.400
2023-03-21T10:11:23.820Z,5.599
2023-03-21T10:12:23.749Z,5.800
2023-03-21T10:13:23.625Z,5.5
2023-03-21T10:14:24.156Z,5.599
2023-03-21T10:15:24.282Z,5.300
2023-03-21T10:16:24.608Z,5.099
2023-03-21T10:17:24.867Z,5.800
2023-03-21T10:18:24.092Z,5.300
2023-03-21T10:19:23.858Z,5.199
2023-03-21T10:20:23.752Z,5.599
2023-03-21T10:21:47.447Z,5.400
2023-03-21T10:22:32.120Z,5.5
2023-03-21T10:23:22.813Z,5.400
2023-03-21T10:24:23.521Z,5.099
2023-03-21T10:25:23.951Z,5.199
2023-03-21T10:26:23.627Z,5.099
2023-03-21T10:27:23.802Z,5
2023-03-21T10:28:23.039Z,5.199
2023-03-21T10:29:23.756Z,4.800
2023-03-21T10:30:23.723Z,5.300
2023-03-21T10:31:22.457Z,4.699
2023-03-21T10:32:23.244Z,5.199
2023-03-21T10:33:22.780Z,4.599
2023-03-21T10:34:23.322Z,4.800
2023-03-21T10:35:22.797Z,5
2023-03-21T10:36:23.076Z,5.099
2023-03-21T10:37:23.189Z,5.300
2023-03-21T10:38:23.096Z,5.5
2023-03-21T10:39:22.998Z,4.699
2023-03-21T10:40:23.739Z,5.199
2023-03-21T10:41:23.193Z,5.099
2023-03-21T10:43:22.974Z,5.300
2023-03-21T10:44:23.474Z,4.900
2023-03-21T10:45:23.528Z,4.699
2023-03-21T10:46:23.997Z,4.5
2023-03-21T10:47:23.066Z,4.800
2023-03-21T10:48:23.428Z,4.599
2023-03-21T10:49:23.115Z,5.400
2023-03-21T10:50:23.750Z,4.900
2023-03-21T10:51:23.693Z,4.400
2023-03-21T10:53:23.715Z,4.300
2023-03-21T10:54:23.820Z,4.699
2023-03-21T10:57:25.219Z,4.599
2023-03-21T10:58:24.336Z,4.699
2023-03-21T10:59:23.973Z,4.400
2023-03-21T11:00:24.624Z,4.699
2023-03-21T11:01:24.144Z,4.599
2023-03-21T11:02:23.952Z,4.400
2023-03-21T11:03:38.617Z,4.900
2023-03-21T11:04:23.123Z,4.699
2023-03-21T11:05:38.112Z,4.5
2023-03-21T11:06:23.733Z,4.599
2023-03-21T11:07:23.675Z,4.800
2023-03-21T11:08:23.585Z,4.099
2023-03-21T11:09:23.536Z,3.900
2023-03-21T11:10:28.833Z,4
2023-03-21T11:11:23.636Z,4.5
2023-03-21T11:12:23.155Z,4.300
2023-03-21T11:13:23.399Z,4.800
2023-03-21T11:14:23.647Z,4.699
2023-03-21T11:15:24.403Z,4
2023-03-21T11:16:23.652Z,4.300
2023-03-21T11:17:23.369Z,3.799
2023-03-21T11:18:23.333Z,4
2023-03-21T11:20:23.834Z,4.699
2023-03-21T11:21:23.769Z,5
2023-03-21T11:22:23.331Z,4
2023-03-21T11:23:23.450Z,3.599
2023-03-21T11:24:23.988Z,3.900
2023-03-21T11:25:24.109Z,3.799
2023-03-21T11:26:23.415Z,3.900
2023-03-21T11:27:23.472Z,3.599
2023-03-21T11:28:23.150Z,3.700
2023-03-21T11:29:23.824Z,3.5
2023-03-21T11:30:23.610Z,3.400
2023-03-21T11:32:26.417Z,3.200
2023-03-21T11:33:23.133Z,3.099
2023-03-21T11:34:23.516Z,3.200
2023-03-21T11:35:23.288Z,3.299
2023-03-21T11:36:22.688Z,3.200
2023-03-21T11:37:23.479Z,3
2023-03-21T11:38:23.286Z,2.700
2023-03-21T11:39:23.758Z,2.900
2023-03-21T11:40:23.887Z,2.799
2023-03-21T11:42:23.402Z,2.900
2023-03-21T11:44:23.284Z,2.700
2023-03-21T11:45:23.723Z,2.599
2023-03-21T11:46:23.319Z,2.900
2023-03-21T11:47:23.277Z,2.799
2023-03-21T11:48:23.170Z,3
2023-03-21T11:49:23.282Z,2.599
2023-03-21T11:51:23.553Z,2.799
2023-03-21T11:56:22.785Z,3
2023-03-21T11:57:23.314Z,2.700
2023-03-21T11:58:23.177Z,2.799
2023-03-21T12:00:24.548Z,2.700
2023-03-21T12:02:22.751Z,3.099
2023-03-21T12:04:23.324Z,3.799
2023-03-21T12:05:23.175Z,5.199
2023-03-21T12:06:22.625Z,3.599
2023-03-21T12:07:23.586Z,3.900
2023-03-21T12:08:23.240Z,3.200
2023-03-21T12:10:22.470Z,3.400
2023-03-21T12:11:23.118Z,3.299
2023-03-21T12:12:30.030Z,4.800
2023-03-21T12:13:22.413Z,4.099
2023-03-21T12:14:23.172Z,3.5
2023-03-21T12:15:23.189Z,3.400
2023-03-21T12:16:23.067Z,4.599
2023-03-21T12:17:23.265Z,3.200
2023-03-21T12:18:23.001Z,3.5
2023-03-21T12:19:23.052Z,3.200
2023-03-21T12:21:23.457Z,2.900
2023-03-21T12:22:23.022Z,2.700
2023-03-21T12:23:22.974Z,3
2023-03-21T12:24:23.614Z,2.700
2023-03-21T12:25:23.194Z,2.599
2023-03-21T12:27:23.666Z,3
2023-03-21T12:28:31.945Z,3.099
2023-03-21T12:29:23.956Z,2.400
2023-03-21T12:30:23.931Z,2.599
2023-03-21T12:32:23.066Z,2.5
2023-03-21T12:33:23.246Z,2.599
2023-03-21T12:34:22.394Z,2.5
2023-03-21T12:35:22.441Z,3.099
2023-03-21T12:36:22.928Z,3
2023-03-21T12:37:22.760Z,2.900
2023-03-21T12:38:20.843Z,2.599
2023-03-21T12:39:23.724Z,3
2023-03-21T12:40:23.740Z,2.799
2023-03-21T12:41:23.230Z,2.599
2023-03-21T12:42:23.131Z,2.700
2023-03-21T12:43:23.213Z,2.599
2023-03-21T12:44:22.986Z,2.700
2023-03-21T12:45:23.831Z,2.599
2023-03-21T12:46:23.310Z,2.700
2023-03-21T12:49:23.600Z,2.400
2023-03-21T12:50:23.496Z,2.700
2023-03-21T12:51:23.614Z,2.400
2023-03-21T12:55:24.022Z,2.599
2023-03-21T12:57:22.853Z,2.5
2023-03-21T12:58:22.713Z,2.599
2023-03-21T13:00:24.478Z,2.299
2023-03-21T13:01:23.491Z,2.599
2023-03-21T13:03:30.447Z,2.400
2023-03-21T13:04:23.921Z,2.299
2023-03-21T13:05:24.157Z,2.5
2023-03-21T13:06:23.824Z,2.200
2023-03-21T13:07:23.959Z,2.299
2023-03-21T13:10:22.854Z,2.200
2023-03-21T13:12:23.258Z,2.299
2023-03-21T13:13:22.990Z,1.899
2023-03-21T13:14:23.494Z,2.400
2023-03-21T13:15:24.556Z,2.599
2023-03-21T13:17:23.459Z,2.5
2023-03-21T13:18:32.165Z,4.199
2023-03-21T13:19:23.485Z,3.5
2023-03-21T13:21:23.343Z,3
2023-03-21T13:22:23.003Z,3.400
2023-03-21T13:23:23.591Z,3
2023-03-21T13:24:23.435Z,2.700
2023-03-21T13:25:23.356Z,2.599
2023-03-21T13:27:22.972Z,2.700
2023-03-21T13:28:22.341Z,2.5
2023-03-21T13:30:23.660Z,2.799
2023-03-21T13:31:23.060Z,2.400
2023-03-21T13:32:23.763Z,2.599
2023-03-21T13:33:22.485Z,2
2023-03-21T13:34:23.426Z,2.099
2023-03-21T13:36:23.180Z,2.400
2023-03-21T13:37:23.465Z,3.299
2023-03-21T13:38:23.636Z,2.599
2023-03-21T13:39:23.932Z,2.799
2023-03-21T13:40:23.242Z,2.400
2023-03-21T13:41:23.434Z,2.099
2023-03-21T13:42:23.742Z,2.299
2023-03-21T13:45:24.000Z,3.099
2023-03-21T13:46:23.632Z,2.5
2023-03-21T13:47:23.635Z,2.400
2023-03-21T13:48:23.164Z,2.200
2023-03-21T13:49:23.475Z,2.400
2023-03-21T13:50:23.682Z,2.200
2023-03-21T13:52:23.120Z,2.299
2023-03-21T13:53:23.126Z,2.400
2023-03-21T13:54:22.866Z,2.599
2023-03-21T13:55:23.474Z,2.099
2023-03-21T13:56:23.064Z,2.400
2023-03-21T13:57:23.137Z,2.299
2023-03-21T13:59:22.646Z,2.5
2023-03-21T14:00:24.310Z,2.299
2023-03-21T14:01:24.352Z,2.400
2023-03-21T14:02:22.519Z,2.599
2023-03-21T14:03:22.957Z,2.400
2023-03-21T14:04:27.195Z,2.099
2023-03-21T14:05:23.149Z,2.400
2023-03-21T14:07:23.593Z,2.599
2023-03-21T14:10:24.012Z,3
2023-03-21T14:11:23.042Z,2.599
2023-03-21T14:12:22.453Z,2.400
2023-03-21T14:13:23.008Z,2.599
2023-03-21T14:15:23.635Z,2.5
2023-03-21T14:16:23.592Z,2.400
2023-03-21T14:17:23.127Z,2.599
2023-03-21T14:18:35.254Z,2.799
2023-03-21T14:19:23.088Z,2.5
2023-03-21T14:20:23.280Z,2.599
2023-03-21T14:21:24.503Z,2.5
2023-03-21T14:22:22.841Z,2.400
2023-03-21T14:23:22.624Z,2.700
2023-03-21T14:24:23.377Z,2.400
2023-03-21T14:25:31.302Z,2.5
2023-03-21T14:26:25.102Z,2.400
2023-03-21T14:27:22.849Z,2.900
2023-03-21T14:29:26.461Z,2.700
2023-03-21T14:30:23.831Z,2.599
2023-03-21T14:31:23.163Z,3
2023-03-21T14:32:23.108Z,2.900
2023-03-21T14:34:22.824Z,2.700
2023-03-21T14:35:22.463Z,2.900
2023-03-21T14:36:23.007Z,2.700
2023-03-21T14:37:23.003Z,2.900
2023-03-21T14:39:23.460Z,2.799
2023-03-21T14:40:23.068Z,2.700
2023-03-21T14:41:23.177Z,2.900
2023-03-21T14:42:22.860Z,3
2023-03-21T14:44:23.154Z,3.099
2023-03-21T14:45:23.837Z,2.799
2023-03-21T14:46:24.008Z,2.700
2023-03-21T14:47:23.045Z,2.900
2023-03-21T14:48:23.004Z,2.799
2023-03-21T14:49:22.772Z,2.700
2023-03-21T14:50:23.216Z,2.900
2023-03-21T14:53:22.653Z,3.099
2023-03-21T14:54:23.103Z,2.700
2023-03-21T14:55:23.105Z,3
2023-03-21T14:56:22.836Z,3.200
2023-03-21T14:57:23.186Z,2.700
2023-03-21T14:58:22.320Z,2.900
2023-03-21T14:59:23.328Z,2.599
2023-03-21T15:00:24.177Z,2.900
2023-03-21T15:01:23.948Z,2.599
2023-03-21T15:02:22.970Z,2.900
2023-03-21T15:03:22.858Z,2.799
2023-03-21T15:04:23.144Z,2.900
2023-03-21T15:05:23.311Z,2.599
2023-03-21T15:06:22.913Z,2.799
2023-03-21T15:08:22.891Z,2.900
2023-03-21T15:09:23.666Z,2.700
2023-03-21T15:10:23.386Z,2.799
2023-03-21T15:11:24.005Z,2.900
2023-03-21T15:12:23.566Z,2.700
2023-03-21T15:14:23.454Z,2.599
2023-03-21T15:15:25.991Z,2.900
2023-03-21T15:16:24.329Z,2.799
2023-03-21T15:17:23.199Z,3
2023-03-21T15:18:23.291Z,2.700
2023-03-21T15:19:23.642Z,2.599
2023-03-21T15:20:23.150Z,3
2023-03-21T15:21:23.344Z,2.799
2023-03-21T15:22:23.336Z,2.900
2023-03-21T15:23:23.726Z,2.400